EEKA

Kärdla Airport

Kärdla, Estonia
METAR EEKA 221450Z 18005KT CAVOK 23/02 Q1019
Observed Flight Rules
May-22 @ 14:50 UTC (11 hours ago) Visual Flight Rules
Wind Visibility Clouds
180° at 5 knots 10,000+ meters
  • Clear skies
Temperatures Readings
Current 23°C / 73°F
Dewpoint 2°C / 36°F
Humidity 25%
Altimeter 30.09" Hg
Pressure 1019 hPa
Elevation 4
METAR EEKA 221450Z 18005KT CAVOK 23/02 Q1019
Observed Flight Rules
May-22 @ 14:50 UTC
(11 hours ago)
VFR
Wind Visibility
180° at 5 knots 10,000+ meters
Clouds
  • Clear skies
Temperature Dewpoint
23°C / 73°F 2°C / 36°F
Humidity Altimeter Pressure
25% 30.09" Hg 1019 hPa